createdAt,value
2023-01-21T00:00:51.254Z,20
2023-01-21T00:01:51.220Z,20
2023-01-21T00:02:51.210Z,20
2023-01-21T00:03:51.211Z,20
2023-01-21T00:04:51.218Z,20
2023-01-21T00:05:51.191Z,20
2023-01-21T00:06:51.177Z,20
2023-01-21T00:07:51.162Z,20
2023-01-21T00:08:51.161Z,20
2023-01-21T00:09:51.174Z,20
2023-01-21T00:10:51.130Z,20
2023-01-21T00:11:51.119Z,20
2023-01-21T00:12:51.110Z,20
2023-01-21T00:13:51.122Z,20
2023-01-21T00:14:51.094Z,20
2023-01-21T00:15:51.098Z,20
2023-01-21T00:16:51.067Z,20
2023-01-21T00:17:51.068Z,20
2023-01-21T00:18:51.048Z,20
2023-01-21T00:19:51.051Z,20
2023-01-21T00:20:51.052Z,20
2023-01-21T00:21:51.018Z,20
2023-01-21T00:22:51.024Z,20
2023-01-21T00:23:50.997Z,20
2023-01-21T00:24:50.993Z,20
2023-01-21T00:25:50.984Z,20
2023-01-21T00:26:50.962Z,20
2023-01-21T00:27:50.966Z,20
2023-01-21T00:28:50.947Z,20
2023-01-21T00:29:50.950Z,20
2023-01-21T00:30:50.921Z,20
2023-01-21T00:31:50.926Z,20
2023-01-21T00:32:50.926Z,20
2023-01-21T00:33:50.896Z,20
2023-01-21T00:34:50.885Z,20
2023-01-21T00:35:50.875Z,20
2023-01-21T00:36:50.862Z,20
2023-01-21T00:37:50.853Z,16
2023-01-21T00:38:50.840Z,20
2023-01-21T00:39:50.834Z,20
2023-01-21T00:40:50.825Z,20
2023-01-21T00:41:50.822Z,20
2023-01-21T00:42:50.804Z,20
2023-01-21T00:43:50.818Z,20
2023-01-21T00:44:50.779Z,20
2023-01-21T00:45:50.766Z,20
2023-01-21T00:46:50.757Z,20
2023-01-21T00:47:50.751Z,20
2023-01-21T00:48:50.751Z,20
2023-01-21T00:49:50.735Z,20
2023-01-21T00:50:50.718Z,20
2023-01-21T00:51:50.725Z,20
2023-01-21T00:52:50.722Z,20
2023-01-21T00:53:50.690Z,20
2023-01-21T00:54:50.679Z,20
2023-01-21T00:55:50.668Z,20
2023-01-21T00:56:50.668Z,20
2023-01-21T00:57:50.647Z,20
2023-01-21T00:58:50.662Z,20
2023-01-21T00:59:50.630Z,20
2023-01-21T01:00:50.624Z,20
2023-01-21T01:01:50.620Z,20
2023-01-21T01:02:50.599Z,20
2023-01-21T01:03:50.714Z,20
2023-01-21T01:04:50.572Z,20
2023-01-21T01:05:50.566Z,20
2023-01-21T01:06:50.554Z,20
2023-01-21T01:07:50.564Z,20
2023-01-21T01:08:50.590Z,20
2023-01-21T01:09:50.531Z,20
2023-01-21T01:10:50.518Z,20
2023-01-21T01:11:50.500Z,20
2023-01-21T01:12:50.498Z,20
2023-01-21T01:13:50.494Z,20
2023-01-21T01:14:50.474Z,20
2023-01-21T01:15:50.465Z,20
2023-01-21T01:16:50.454Z,20
2023-01-21T01:17:50.441Z,20
2023-01-21T01:18:50.432Z,20
2023-01-21T01:19:50.430Z,20
2023-01-21T01:20:50.412Z,20
2023-01-21T01:21:50.402Z,20
2023-01-21T01:22:50.385Z,20
2023-01-21T01:23:50.383Z,20
2023-01-21T01:24:50.390Z,20
2023-01-21T01:25:50.387Z,20
2023-01-21T01:26:50.355Z,20
2023-01-21T01:27:50.339Z,20
2023-01-21T01:28:50.331Z,20
2023-01-21T01:29:50.326Z,20
2023-01-21T01:30:50.319Z,20
2023-01-21T01:31:50.324Z,20
2023-01-21T01:32:50.292Z,20
2023-01-21T01:33:50.275Z,20
2023-01-21T01:34:50.266Z,20
2023-01-21T01:35:50.257Z,20
2023-01-21T01:36:50.259Z,20
2023-01-21T01:37:50.239Z,20
2023-01-21T01:38:50.231Z,20
2023-01-21T01:39:50.231Z,20
2023-01-21T01:40:50.201Z,20
2023-01-21T01:41:50.208Z,20
2023-01-21T01:42:50.211Z,20
2023-01-21T01:43:50.184Z,20
2023-01-21T01:44:50.165Z,20
2023-01-21T01:45:57.724Z,20
2023-01-21T01:46:50.141Z,20
2023-01-21T01:47:50.138Z,20
2023-01-21T01:48:50.141Z,20
2023-01-21T01:49:50.122Z,20
2023-01-21T01:50:50.105Z,20
2023-01-21T01:51:50.100Z,20
2023-01-21T01:52:50.082Z,20
2023-01-21T01:53:50.073Z,20
2023-01-21T01:54:50.066Z,20
2023-01-21T01:55:50.059Z,20
2023-01-21T01:56:50.043Z,20
2023-01-21T01:57:50.038Z,20
2023-01-21T01:59:41.371Z,20
2023-01-21T02:00:41.355Z,20
2023-01-21T02:01:41.346Z,20
2023-01-21T02:02:41.384Z,20
2023-01-21T02:03:41.311Z,20
2023-01-21T02:04:41.336Z,20
2023-01-21T02:05:41.313Z,20
2023-01-21T02:06:41.282Z,20
2023-01-21T02:07:41.298Z,20
2023-01-21T02:08:41.268Z,20
2023-01-21T02:09:41.246Z,20
2023-01-21T02:10:41.255Z,20
2023-01-21T02:11:41.227Z,20
2023-01-21T02:12:41.226Z,20
2023-01-21T02:13:41.205Z,20
2023-01-21T02:14:41.195Z,20
2023-01-21T02:15:41.188Z,20
2023-01-21T02:16:41.196Z,20
2023-01-21T02:17:41.216Z,20
2023-01-21T02:18:41.172Z,20
2023-01-21T02:19:41.168Z,20
2023-01-21T02:20:41.142Z,20
2023-01-21T02:21:41.124Z,20
2023-01-21T02:22:41.131Z,20
2023-01-21T02:23:41.106Z,20
2023-01-21T02:24:41.271Z,20
2023-01-21T02:25:41.082Z,20
2023-01-21T02:26:41.073Z,20
2023-01-21T02:27:41.063Z,20
2023-01-21T02:28:41.093Z,20
2023-01-21T02:29:41.060Z,20
2023-01-21T02:30:41.074Z,20
2023-01-21T02:31:41.017Z,20
2023-01-21T02:32:41.011Z,20
2023-01-21T02:33:41.000Z,20
2023-01-21T02:34:40.994Z,20
2023-01-21T02:35:40.974Z,20
2023-01-21T02:36:40.975Z,20
2023-01-21T02:37:40.957Z,20
2023-01-21T02:38:40.947Z,20
2023-01-21T02:39:40.942Z,20
2023-01-21T02:40:40.956Z,20
2023-01-21T02:41:40.917Z,20
2023-01-21T02:42:40.907Z,20
2023-01-21T02:43:40.896Z,20
2023-01-21T02:44:40.888Z,20
2023-01-21T02:45:40.875Z,20
2023-01-21T02:46:40.862Z,20
2023-01-21T02:47:40.856Z,20
2023-01-21T02:48:40.840Z,20
2023-01-21T02:49:40.832Z,20
2023-01-21T02:50:40.820Z,20
2023-01-21T02:51:40.807Z,20
2023-01-21T02:52:40.808Z,20
2023-01-21T02:53:40.790Z,20
2023-01-21T02:54:40.777Z,20
2023-01-21T02:55:40.778Z,20
2023-01-21T02:56:40.761Z,20
2023-01-21T02:57:40.750Z,20
2023-01-21T02:58:40.742Z,20
2023-01-21T02:59:40.755Z,20
2023-01-21T03:00:40.718Z,20
2023-01-21T03:01:40.718Z,20
2023-01-21T03:02:40.697Z,20
2023-01-21T03:03:40.698Z,20
2023-01-21T03:04:40.684Z,20
2023-01-21T03:05:40.682Z,16
2023-01-21T03:06:40.659Z,20
2023-01-21T03:07:40.651Z,20
2023-01-21T03:08:40.641Z,20
2023-01-21T03:09:40.659Z,20
2023-01-21T03:10:40.617Z,20
2023-01-21T03:11:40.607Z,20
2023-01-21T03:12:40.646Z,20
2023-01-21T03:13:40.582Z,20
2023-01-21T03:14:40.568Z,20
2023-01-21T03:15:40.570Z,20
2023-01-21T03:16:40.568Z,20
2023-01-21T03:17:40.541Z,20
2023-01-21T03:18:40.529Z,20
2023-01-21T03:19:40.523Z,20
2023-01-21T03:20:40.517Z,20
2023-01-21T03:21:40.507Z,20
2023-01-21T03:22:40.502Z,20
2023-01-21T03:23:40.478Z,20
2023-01-21T03:24:40.465Z,20
2023-01-21T03:25:40.456Z,20
2023-01-21T03:26:40.449Z,20
2023-01-21T03:27:40.446Z,20
2023-01-21T03:28:40.427Z,20
2023-01-21T03:29:40.420Z,20
2023-01-21T03:30:40.403Z,20
2023-01-21T03:31:40.399Z,20
2023-01-21T03:32:40.394Z,24
2023-01-21T03:33:40.379Z,20
2023-01-21T03:34:40.389Z,20
2023-01-21T03:35:40.363Z,20
2023-01-21T03:36:40.339Z,20
2023-01-21T03:37:40.330Z,20
2023-01-21T03:38:40.327Z,20
2023-01-21T03:39:40.331Z,20
2023-01-21T03:40:40.317Z,20
2023-01-21T03:41:40.334Z,20
2023-01-21T03:42:40.286Z,20
2023-01-21T03:43:40.266Z,20
2023-01-21T03:44:40.272Z,20
2023-01-21T03:45:40.258Z,20
2023-01-21T03:46:40.240Z,20
2023-01-21T03:47:40.227Z,20
2023-01-21T03:48:40.216Z,20
2023-01-21T03:49:40.210Z,20
2023-01-21T03:50:40.195Z,20
2023-01-21T03:51:40.200Z,20
2023-01-21T03:52:40.192Z,20
2023-01-21T03:53:40.190Z,20
2023-01-21T03:54:40.166Z,20
2023-01-21T03:55:40.143Z,20
2023-01-21T03:56:40.145Z,20
2023-01-21T03:57:40.137Z,20
2023-01-21T03:58:40.117Z,20
2023-01-21T03:59:40.110Z,20
2023-01-21T04:00:40.098Z,24
2023-01-21T04:01:40.088Z,24
2023-01-21T04:02:40.074Z,24
2023-01-21T04:03:40.068Z,24
2023-01-21T04:04:40.051Z,24
2023-01-21T04:05:40.072Z,24
2023-01-21T04:06:40.038Z,24
2023-01-21T04:07:40.027Z,24
2023-01-21T04:08:40.032Z,24
2023-01-21T04:09:40.017Z,24
2023-01-21T04:10:40.019Z,24
2023-01-21T04:11:40.024Z,24
2023-01-21T04:12:39.967Z,24
2023-01-21T04:13:39.958Z,24
2023-01-21T04:14:39.954Z,24
2023-01-21T04:15:39.951Z,24
2023-01-21T04:16:39.944Z,24
2023-01-21T04:17:39.941Z,24
2023-01-21T04:18:39.910Z,24
2023-01-21T04:19:39.899Z,24
2023-01-21T04:20:39.886Z,24
2023-01-21T04:21:39.897Z,24
2023-01-21T04:22:39.871Z,24
2023-01-21T04:23:39.866Z,24
2023-01-21T04:24:39.843Z,24
2023-01-21T04:25:39.838Z,24
2023-01-21T04:26:39.871Z,24
2023-01-21T04:27:39.850Z,24
2023-01-21T04:28:39.850Z,24
2023-01-21T04:29:39.802Z,24
2023-01-21T04:30:39.788Z,24
2023-01-21T04:31:39.784Z,24
2023-01-21T04:32:39.776Z,24
2023-01-21T04:33:39.775Z,24
2023-01-21T04:34:39.739Z,24
2023-01-21T04:35:39.780Z,24
2023-01-21T04:36:39.742Z,24
2023-01-21T04:37:39.710Z,24
2023-01-21T04:38:39.714Z,24
2023-01-21T04:39:39.702Z,24
2023-01-21T04:40:39.677Z,24
2023-01-21T04:41:39.671Z,24
2023-01-21T04:42:39.659Z,24
2023-01-21T04:43:39.653Z,24
2023-01-21T04:44:39.636Z,24
2023-01-21T04:45:39.634Z,24
2023-01-21T04:46:39.611Z,24
2023-01-21T04:47:39.614Z,24
2023-01-21T04:48:39.622Z,24
2023-01-21T04:49:39.586Z,24
2023-01-21T04:50:39.578Z,24
2023-01-21T04:51:39.580Z,24
2023-01-21T04:52:39.554Z,24
2023-01-21T04:53:39.540Z,24
2023-01-21T04:54:39.544Z,24
2023-01-21T04:55:39.542Z,24
2023-01-21T04:56:39.534Z,24
2023-01-21T04:57:39.519Z,24
2023-01-21T04:58:39.522Z,24
2023-01-21T04:59:39.490Z,24
2023-01-21T05:00:39.467Z,24
2023-01-21T05:01:39.486Z,24
2023-01-21T05:02:39.459Z,24
2023-01-21T05:03:39.486Z,24
2023-01-21T05:04:39.473Z,24
2023-01-21T05:05:39.414Z,24
2023-01-21T05:06:39.418Z,24
2023-01-21T05:07:39.410Z,24
2023-01-21T05:08:39.398Z,24
2023-01-21T05:09:39.387Z,24
2023-01-21T05:10:39.378Z,24
2023-01-21T05:11:39.362Z,24
2023-01-21T05:12:39.348Z,24
2023-01-21T05:13:39.377Z,24
2023-01-21T05:14:39.356Z,24
2023-01-21T05:15:39.323Z,24
2023-01-21T05:16:39.304Z,24
2023-01-21T05:17:39.343Z,24
2023-01-21T05:18:39.284Z,24
2023-01-21T05:19:39.269Z,24
2023-01-21T05:20:39.266Z,24
2023-01-21T05:21:39.255Z,24
2023-01-21T05:22:39.246Z,24
2023-01-21T05:23:39.224Z,24
2023-01-21T05:24:39.221Z,24
2023-01-21T05:25:39.213Z,24
2023-01-21T05:26:39.211Z,24
2023-01-21T05:27:39.188Z,24
2023-01-21T05:28:39.177Z,24
2023-01-21T05:29:39.171Z,24
2023-01-21T05:30:39.163Z,28
2023-01-21T05:31:39.160Z,24
2023-01-21T05:32:39.138Z,24
2023-01-21T05:33:39.126Z,24
2023-01-21T05:34:39.125Z,24
2023-01-21T05:35:39.106Z,24
2023-01-21T05:36:39.093Z,24
2023-01-21T05:37:39.087Z,24
2023-01-21T05:38:39.075Z,24
2023-01-21T05:39:39.062Z,24
2023-01-21T05:40:39.053Z,24
2023-01-21T05:41:39.071Z,24
2023-01-21T05:42:39.046Z,24
2023-01-21T05:43:39.072Z,24
2023-01-21T05:44:39.038Z,24
2023-01-21T05:45:39.070Z,24
2023-01-21T05:46:39.059Z,24
2023-01-21T05:47:39.029Z,24
2023-01-21T05:48:39.020Z,24
2023-01-21T05:49:38.960Z,24
2023-01-21T05:50:38.966Z,24
2023-01-21T05:51:38.937Z,24
2023-01-21T05:52:38.924Z,24
2023-01-21T05:53:38.917Z,24
2023-01-21T05:54:38.916Z,24
2023-01-21T05:55:38.917Z,24
2023-01-21T05:56:38.889Z,24
2023-01-21T05:57:38.902Z,24
2023-01-21T05:58:38.864Z,24
2023-01-21T05:59:38.850Z,24
2023-01-21T06:00:38.848Z,24
2023-01-21T06:01:38.841Z,24
2023-01-21T06:02:38.830Z,24
2023-01-21T06:03:38.813Z,24
2023-01-21T06:04:38.847Z,24
2023-01-21T06:05:38.795Z,24
2023-01-21T06:06:38.783Z,24
2023-01-21T06:07:38.769Z,24
2023-01-21T06:08:38.762Z,24
2023-01-21T06:09:38.753Z,24
2023-01-21T06:10:38.737Z,24
2023-01-21T06:11:38.731Z,24
2023-01-21T06:12:38.720Z,24
2023-01-21T06:13:38.720Z,24
2023-01-21T06:14:38.695Z,24
2023-01-21T06:15:38.687Z,24
2023-01-21T06:16:38.679Z,24
2023-01-21T06:17:38.663Z,24
2023-01-21T06:18:38.664Z,24
2023-01-21T06:19:38.650Z,24
2023-01-21T06:20:38.632Z,24
2023-01-21T06:21:38.640Z,24
2023-01-21T06:22:38.667Z,24
2023-01-21T06:23:38.614Z,24
2023-01-21T06:24:38.602Z,24
2023-01-21T06:25:38.582Z,24
2023-01-21T06:26:38.571Z,24
2023-01-21T06:27:38.562Z,24
2023-01-21T06:28:38.548Z,24
2023-01-21T06:29:38.544Z,24
2023-01-21T06:30:38.532Z,24
2023-01-21T06:31:38.529Z,24
2023-01-21T06:32:38.510Z,24
2023-01-21T06:33:38.499Z,24
2023-01-21T06:34:38.491Z,24
2023-01-21T06:35:38.474Z,24
2023-01-21T06:36:38.478Z,24
2023-01-21T06:37:38.474Z,24
2023-01-21T06:38:38.457Z,24
2023-01-21T06:39:38.432Z,24
2023-01-21T06:40:38.425Z,24
2023-01-21T06:41:38.411Z,24
2023-01-21T06:42:38.406Z,24
2023-01-21T06:43:38.420Z,24
2023-01-21T06:44:38.381Z,24
2023-01-21T06:45:38.372Z,24
2023-01-21T06:46:38.358Z,24
2023-01-21T06:47:38.354Z,24
2023-01-21T06:48:38.391Z,24
2023-01-21T06:49:38.366Z,24
2023-01-21T06:50:38.324Z,24
2023-01-21T06:51:38.308Z,24
2023-01-21T06:52:38.309Z,28
2023-01-21T06:53:38.302Z,24
2023-01-21T06:54:38.291Z,24
2023-01-21T06:55:38.265Z,24
2023-01-21T06:56:38.262Z,24
2023-01-21T06:57:38.261Z,28
2023-01-21T06:58:38.232Z,28
2023-01-21T06:59:38.228Z,24
2023-01-21T07:00:38.268Z,28
2023-01-21T07:01:38.228Z,28
2023-01-21T07:02:38.222Z,28
2023-01-21T07:03:38.191Z,28
2023-01-21T07:04:38.179Z,28
2023-01-21T07:05:38.172Z,28
2023-01-21T07:06:38.151Z,32
2023-01-21T07:07:38.157Z,28
2023-01-21T07:08:38.126Z,28
2023-01-21T07:09:38.119Z,24
2023-01-21T07:10:38.110Z,28
2023-01-21T07:11:38.099Z,28
2023-01-21T07:12:38.091Z,28
2023-01-21T07:13:38.078Z,28
2023-01-21T07:14:38.069Z,32
2023-01-21T07:15:38.055Z,36
2023-01-21T07:16:38.047Z,24
2023-01-21T07:17:38.030Z,28
2023-01-21T07:18:38.028Z,28
2023-01-21T07:19:38.023Z,32
2023-01-21T07:20:38.002Z,32
2023-01-21T07:21:37.992Z,36
2023-01-21T07:22:37.981Z,36
2023-01-21T07:23:37.968Z,36
2023-01-21T07:24:37.963Z,44
2023-01-21T07:25:37.949Z,48
2023-01-21T07:26:37.938Z,52
2023-01-21T07:27:37.939Z,56
2023-01-21T07:28:37.923Z,56
2023-01-21T07:29:37.908Z,60
2023-01-21T07:30:37.896Z,64
2023-01-21T07:31:37.890Z,72
2023-01-21T07:32:37.874Z,72
2023-01-21T07:33:37.869Z,76
2023-01-21T07:34:37.859Z,84
2023-01-21T07:35:37.854Z,88
2023-01-21T07:36:37.849Z,92
2023-01-21T07:37:37.823Z,96
2023-01-21T07:38:37.812Z,104
2023-01-21T07:39:37.801Z,120
2023-01-21T07:40:37.815Z,132
2023-01-21T07:41:37.793Z,132
2023-01-21T07:42:37.770Z,136
2023-01-21T07:43:37.760Z,144
2023-01-21T07:44:37.750Z,156
2023-01-21T07:45:37.744Z,172
2023-01-21T07:46:37.730Z,184
2023-01-21T07:47:37.736Z,196
2023-01-21T07:48:37.705Z,204
2023-01-21T07:49:37.694Z,216
2023-01-21T07:50:37.685Z,224
2023-01-21T07:51:37.707Z,228
2023-01-21T07:52:37.691Z,244
2023-01-21T07:53:37.657Z,264
2023-01-21T07:54:37.650Z,280
2023-01-21T07:55:37.631Z,300
2023-01-21T07:56:37.703Z,332
2023-01-21T07:57:37.611Z,340
2023-01-21T07:58:37.602Z,356
2023-01-21T07:59:37.589Z,368
2023-01-21T08:00:37.592Z,384
2023-01-21T08:01:37.572Z,392
2023-01-21T08:02:37.560Z,408
2023-01-21T08:03:37.548Z,420
2023-01-21T08:04:37.534Z,436
2023-01-21T08:05:37.524Z,456
2023-01-21T08:06:37.522Z,484
2023-01-21T08:07:37.504Z,504
2023-01-21T08:08:37.495Z,500
2023-01-21T08:09:37.487Z,524
2023-01-21T08:10:37.470Z,532
2023-01-21T08:11:37.464Z,532
2023-01-21T08:12:37.451Z,548
2023-01-21T08:13:37.441Z,576
2023-01-21T08:14:37.428Z,588
2023-01-21T08:15:37.418Z,604
2023-01-21T08:16:37.408Z,620
2023-01-21T08:17:37.402Z,632
2023-01-21T08:18:37.395Z,640
2023-01-21T08:19:37.380Z,672
2023-01-21T08:20:37.369Z,672
2023-01-21T08:21:37.357Z,672
2023-01-21T08:22:37.343Z,668
2023-01-21T08:23:37.337Z,644
2023-01-21T08:24:37.344Z,632
2023-01-21T08:25:37.314Z,616
2023-01-21T08:26:37.303Z,612
2023-01-21T08:27:37.297Z,628
2023-01-21T08:28:37.281Z,684
2023-01-21T08:29:37.271Z,708
2023-01-21T08:30:37.267Z,708
2023-01-21T08:31:37.250Z,704
2023-01-21T08:32:37.238Z,724
2023-01-21T08:33:37.235Z,736
2023-01-21T08:34:37.219Z,768
2023-01-21T08:35:37.220Z,800
2023-01-21T08:36:37.199Z,832
2023-01-21T08:37:37.189Z,856
2023-01-21T08:38:37.173Z,908
2023-01-21T08:39:37.162Z,916
2023-01-21T08:40:37.157Z,932
2023-01-21T08:41:37.162Z,956
2023-01-21T08:42:37.147Z,968
2023-01-21T08:43:37.129Z,956
2023-01-21T08:44:37.122Z,976
2023-01-21T08:45:37.109Z,996
2023-01-21T08:46:37.095Z,1016
2023-01-21T08:47:37.081Z,1020
2023-01-21T08:48:37.077Z,1016
2023-01-21T08:49:37.065Z,1016
2023-01-21T08:50:37.059Z,1048
2023-01-21T08:51:37.039Z,1072
2023-01-21T08:52:37.030Z,1104
2023-01-21T08:53:37.016Z,1132
2023-01-21T08:54:37.007Z,1156
2023-01-21T08:55:36.995Z,1172
2023-01-21T08:56:36.988Z,1212
2023-01-21T08:57:36.975Z,1240
2023-01-21T08:58:36.996Z,1256
2023-01-21T08:59:36.965Z,1224
2023-01-21T09:00:36.942Z,1256
2023-01-21T09:01:36.936Z,1308
2023-01-21T09:02:36.923Z,1336
2023-01-21T09:03:36.926Z,1416
2023-01-21T09:04:36.916Z,1404
2023-01-21T09:05:36.895Z,1432
2023-01-21T09:06:36.883Z,1436
2023-01-21T09:07:36.871Z,1452
2023-01-21T09:08:36.860Z,1448
2023-01-21T09:09:36.849Z,1508
2023-01-21T09:10:36.840Z,1536
2023-01-21T09:11:36.832Z,1524
2023-01-21T09:12:36.829Z,1520
2023-01-21T09:13:36.818Z,1572
2023-01-21T09:14:36.822Z,1632
2023-01-21T09:15:36.814Z,1724
2023-01-21T09:16:36.805Z,1752
2023-01-21T09:17:36.772Z,1540
2023-01-21T09:18:36.755Z,1396
2023-01-21T09:19:36.763Z,1440
2023-01-21T09:20:36.775Z,1628
2023-01-21T09:21:36.728Z,1648
2023-01-21T09:22:36.715Z,1464
2023-01-21T09:23:36.734Z,1356
2023-01-21T09:24:36.692Z,1308
2023-01-21T09:25:36.682Z,1248
2023-01-21T09:26:36.673Z,1204
2023-01-21T09:27:36.660Z,1228
2023-01-21T09:28:36.655Z,1344
2023-01-21T09:29:36.687Z,1428
2023-01-21T09:30:36.626Z,1372
2023-01-21T09:31:36.614Z,1328
2023-01-21T09:32:36.610Z,1252
2023-01-21T09:33:36.596Z,1164
2023-01-21T09:34:36.585Z,1064
2023-01-21T09:35:36.586Z,1036
2023-01-21T09:36:36.564Z,1040
2023-01-21T09:37:36.553Z,1124
2023-01-21T09:38:36.539Z,1220
2023-01-21T09:39:36.539Z,1324
2023-01-21T09:40:36.536Z,1424
2023-01-21T09:41:36.525Z,1384
2023-01-21T09:42:36.500Z,1380
2023-01-21T09:43:36.490Z,1416
2023-01-21T09:44:36.477Z,1404
2023-01-21T09:45:36.478Z,1416
2023-01-21T09:46:36.461Z,1408
2023-01-21T09:47:36.462Z,1436
2023-01-21T09:48:36.453Z,1424
2023-01-21T09:49:36.428Z,1456
2023-01-21T09:50:36.416Z,1436
2023-01-21T09:51:36.409Z,1432
2023-01-21T09:52:36.398Z,1388
2023-01-21T09:53:36.401Z,1356
2023-01-21T09:54:36.376Z,1448
2023-01-21T09:55:36.406Z,1532
2023-01-21T09:56:36.369Z,1524
2023-01-21T09:57:36.346Z,1540
2023-01-21T09:58:36.358Z,1656
2023-01-21T09:59:36.327Z,1676
2023-01-21T10:00:36.374Z,1700
2023-01-21T10:01:36.318Z,1644
2023-01-21T10:02:36.309Z,1680
2023-01-21T10:03:36.281Z,1768
2023-01-21T10:04:36.272Z,1764
2023-01-21T10:05:36.258Z,1772
2023-01-21T10:06:36.290Z,1840
2023-01-21T10:07:36.238Z,1860
2023-01-21T10:08:36.228Z,1752
2023-01-21T10:09:36.216Z,1732
2023-01-21T10:10:36.211Z,1792
2023-01-21T10:11:36.195Z,1824
2023-01-21T10:12:36.193Z,1728
2023-01-21T10:13:36.205Z,1696
2023-01-21T10:14:36.169Z,1620
2023-01-21T10:15:36.159Z,1540
2023-01-21T10:16:36.147Z,1448
2023-01-21T10:17:36.135Z,1452
2023-01-21T10:18:36.122Z,1472
2023-01-21T10:19:36.142Z,1428
2023-01-21T10:20:36.112Z,1496
2023-01-21T10:21:36.092Z,1432
2023-01-21T10:22:36.087Z,1340
2023-01-21T10:23:36.082Z,1412
2023-01-21T10:24:36.094Z,1368
2023-01-21T10:25:36.050Z,1228
2023-01-21T10:26:36.058Z,1208
2023-01-21T10:27:36.031Z,1316
2023-01-21T10:28:36.022Z,1324
2023-01-21T10:29:36.010Z,1256
2023-01-21T10:30:36.028Z,1256
2023-01-21T10:31:35.984Z,1344
2023-01-21T10:32:35.978Z,1432
2023-01-21T10:33:35.963Z,1352
2023-01-21T10:34:35.967Z,1288
2023-01-21T10:35:35.949Z,1356
2023-01-21T10:36:35.948Z,1436
2023-01-21T10:37:35.923Z,1428
2023-01-21T10:38:35.918Z,1396
2023-01-21T10:39:35.907Z,1368
2023-01-21T10:40:35.911Z,1296
2023-01-21T10:41:35.890Z,1200
2023-01-21T10:42:35.886Z,1172
2023-01-21T10:43:35.864Z,1208
2023-01-21T10:44:35.916Z,1152
2023-01-21T10:45:35.841Z,1076
2023-01-21T10:46:35.834Z,1100
2023-01-21T10:47:35.821Z,1228
2023-01-21T10:48:35.815Z,1308
2023-01-21T10:49:35.805Z,1260
2023-01-21T10:50:35.796Z,1240
2023-01-21T10:51:35.778Z,1204
2023-01-21T10:52:35.775Z,1248
2023-01-21T10:53:35.767Z,1372
2023-01-21T10:54:35.756Z,1412
2023-01-21T10:55:35.741Z,1456
2023-01-21T10:56:35.730Z,1488
2023-01-21T10:57:35.715Z,1548
2023-01-21T10:58:35.715Z,1640
2023-01-21T10:59:35.697Z,1796
2023-01-21T11:00:35.746Z,2072
2023-01-21T11:01:35.673Z,2252
2023-01-21T11:02:35.665Z,2428
2023-01-21T11:03:35.651Z,2552
2023-01-21T11:04:35.644Z,2568
2023-01-21T11:05:35.641Z,2548
2023-01-21T11:06:35.676Z,2572
2023-01-21T11:07:35.624Z,2604
2023-01-21T11:08:35.608Z,2696
2023-01-21T11:09:35.612Z,2724
2023-01-21T11:10:35.587Z,2840
2023-01-21T11:11:35.579Z,2968
2023-01-21T11:12:35.563Z,2964
2023-01-21T11:13:35.573Z,2952
2023-01-21T11:14:35.538Z,2936
2023-01-21T11:15:35.527Z,2864
2023-01-21T11:16:35.519Z,2816
2023-01-21T11:17:35.511Z,2724
2023-01-21T11:18:35.505Z,2700
2023-01-21T11:19:35.506Z,2700
2023-01-21T11:20:35.481Z,2720
2023-01-21T11:21:35.466Z,2744
2023-01-21T11:22:35.459Z,2932
2023-01-21T11:23:35.453Z,3248
2023-01-21T11:24:35.436Z,3548
2023-01-21T11:25:35.431Z,3744
2023-01-21T11:26:35.417Z,3972
2023-01-21T11:27:35.498Z,4124
2023-01-21T11:28:35.403Z,4040
2023-01-21T11:29:35.386Z,3884
2023-01-21T11:30:35.382Z,3912
2023-01-21T11:31:35.368Z,4236
2023-01-21T11:32:35.371Z,4548
2023-01-21T11:33:36.297Z,4868
2023-01-21T11:34:35.334Z,5000
2023-01-21T11:35:35.349Z,4936
2023-01-21T11:36:35.354Z,4820
2023-01-21T11:37:35.315Z,4712
2023-01-21T11:38:35.304Z,4600
2023-01-21T11:39:35.339Z,4620
2023-01-21T11:40:35.391Z,4616
2023-01-21T11:41:35.277Z,4628
2023-01-21T11:42:35.248Z,4412
2023-01-21T11:43:35.235Z,4188
2023-01-21T11:44:35.229Z,3924
2023-01-21T11:45:35.217Z,3776
2023-01-21T11:46:35.244Z,3732
2023-01-21T11:47:35.247Z,3508
2023-01-21T11:48:35.198Z,3596
2023-01-21T11:49:35.183Z,3540
2023-01-21T11:50:35.159Z,3468
2023-01-21T11:51:35.192Z,3472
2023-01-21T11:52:35.150Z,3508
2023-01-21T11:53:35.143Z,3640
2023-01-21T11:54:35.119Z,3676
2023-01-21T11:55:35.126Z,3796
2023-01-21T11:56:35.095Z,3812
2023-01-21T11:57:35.123Z,3924
2023-01-21T11:58:35.084Z,4108
2023-01-21T11:59:35.066Z,4200
2023-01-21T12:00:35.056Z,4364
2023-01-21T12:01:35.044Z,4168
2023-01-21T12:02:35.055Z,3964
2023-01-21T12:03:35.020Z,3724
2023-01-21T12:04:35.015Z,3508
2023-01-21T12:05:35.007Z,3488
2023-01-21T12:06:34.998Z,3260
2023-01-21T12:07:34.990Z,3248
2023-01-21T12:08:34.967Z,3108
2023-01-21T12:09:34.965Z,3052
2023-01-21T12:10:34.959Z,2924
2023-01-21T12:11:34.942Z,2916
2023-01-21T12:12:34.924Z,2860
2023-01-21T12:13:34.920Z,2884
2023-01-21T12:14:34.902Z,2920
2023-01-21T12:15:34.901Z,2976
2023-01-21T12:16:34.885Z,3464
2023-01-21T12:17:34.883Z,3176
2023-01-21T12:18:34.859Z,3140
2023-01-21T12:19:34.847Z,3236
2023-01-21T12:20:34.845Z,3188
2023-01-21T12:21:34.835Z,3480
2023-01-21T12:22:34.814Z,3056
2023-01-21T12:23:34.802Z,2884
2023-01-21T12:24:34.818Z,2848
2023-01-21T12:25:34.794Z,2932
2023-01-21T12:26:34.776Z,2952
2023-01-21T12:27:34.761Z,2908
2023-01-21T12:28:34.748Z,2772
2023-01-21T12:29:34.735Z,2784
2023-01-21T12:30:34.724Z,2728
2023-01-21T12:31:34.715Z,2628
2023-01-21T12:32:34.705Z,2488
2023-01-21T12:33:34.692Z,2448
2023-01-21T12:34:34.685Z,2520
2023-01-21T12:35:34.670Z,2544
2023-01-21T12:36:34.659Z,2540
2023-01-21T12:37:34.714Z,2568
2023-01-21T12:38:34.671Z,2496
2023-01-21T12:39:34.679Z,2480
2023-01-21T12:40:34.618Z,2428
2023-01-21T12:41:34.612Z,2324
2023-01-21T12:42:34.605Z,2244
2023-01-21T12:43:34.590Z,2196
2023-01-21T12:44:34.582Z,2240
2023-01-21T12:45:34.593Z,2316
2023-01-21T12:46:34.557Z,2344
2023-01-21T12:47:34.556Z,2408
2023-01-21T12:48:34.530Z,2412
2023-01-21T12:49:34.527Z,2540
2023-01-21T12:50:34.525Z,2556
2023-01-21T12:51:34.503Z,2524
2023-01-21T12:52:34.503Z,2500
2023-01-21T12:53:34.475Z,2508
2023-01-21T12:54:34.467Z,2588
2023-01-21T12:55:34.465Z,2544
2023-01-21T12:56:34.454Z,2484
2023-01-21T12:57:34.442Z,2428
2023-01-21T12:58:34.426Z,2372
2023-01-21T12:59:34.425Z,2340
2023-01-21T13:00:34.404Z,2480
2023-01-21T13:01:34.394Z,2548
2023-01-21T13:02:34.380Z,2564
2023-01-21T13:03:34.373Z,2484
2023-01-21T13:04:34.362Z,2504
2023-01-21T13:05:34.350Z,2636
2023-01-21T13:06:34.339Z,2668
2023-01-21T13:07:34.341Z,2688
2023-01-21T13:08:34.335Z,2764
2023-01-21T13:09:34.312Z,2840
2023-01-21T13:10:34.299Z,2952
2023-01-21T13:11:34.291Z,3108
2023-01-21T13:12:34.279Z,3244
2023-01-21T13:13:34.274Z,3044
2023-01-21T13:14:34.261Z,2996
2023-01-21T13:15:34.246Z,3032
2023-01-21T13:16:34.261Z,2964
2023-01-21T13:17:34.224Z,2888
2023-01-21T13:18:34.213Z,2868
2023-01-21T13:19:34.202Z,3064
2023-01-21T13:20:34.187Z,3048
2023-01-21T13:21:34.198Z,3040
2023-01-21T13:22:34.172Z,3196
2023-01-21T13:23:34.163Z,3264
2023-01-21T13:24:34.148Z,3560
2023-01-21T13:25:34.137Z,3672
2023-01-21T13:26:34.120Z,3584
2023-01-21T13:27:34.173Z,3412
2023-01-21T13:28:34.099Z,3600
2023-01-21T13:29:34.089Z,3612
2023-01-21T13:30:34.080Z,3572
2023-01-21T13:31:34.066Z,3804
2023-01-21T13:32:34.076Z,3800
2023-01-21T13:33:34.044Z,3664
2023-01-21T13:34:34.033Z,3556
2023-01-21T13:35:34.026Z,3432
2023-01-21T13:36:34.021Z,3548
2023-01-21T13:37:34.005Z,3760
2023-01-21T13:38:33.992Z,3876
2023-01-21T13:39:33.982Z,3824
2023-01-21T13:40:33.982Z,3884
2023-01-21T13:41:33.959Z,4120
2023-01-21T13:42:33.970Z,4388
2023-01-21T13:43:34.942Z,4612
2023-01-21T13:44:33.928Z,4652
2023-01-21T13:45:33.920Z,4616
2023-01-21T13:46:33.927Z,4488
2023-01-21T13:47:33.898Z,4364
2023-01-21T13:48:33.899Z,4212
2023-01-21T13:49:33.877Z,4192
2023-01-21T13:50:33.874Z,4144
2023-01-21T13:51:33.851Z,4168
2023-01-21T13:52:33.847Z,4164